sensor_id;sensor_type;location;lat;lon;timestamp;pressure;altitude;pressure_sealevel;temperature;humidity
56082;BME280;41957;52.060;5.138;2022-09-20T00:01:15;102359.84;;;18.38;64.52
56082;BME280;41957;52.060;5.138;2022-09-20T00:03:43;102360.81;;;18.36;64.83
56082;BME280;41957;52.060;5.138;2022-09-20T00:06:14;102354.56;;;18.37;64.32
56082;BME280;41957;52.060;5.138;2022-09-20T00:08:40;102358.06;;;18.39;64.11
56082;BME280;41957;52.060;5.138;2022-09-20T00:11:09;102360.72;;;18.39;64.26
56082;BME280;41957;52.060;5.138;2022-09-20T00:13:36;102348.38;;;18.34;64.67
56082;BME280;41957;52.060;5.138;2022-09-20T00:16:10;102356.34;;;18.36;64.40
56082;BME280;41957;52.060;5.138;2022-09-20T00:18:36;102351.06;;;18.34;64.66
56082;BME280;41957;52.060;5.138;2022-09-20T00:21:02;102357.34;;;18.32;64.38
56082;BME280;41957;52.060;5.138;2022-09-20T00:23:29;102364.41;;;18.33;64.33
56082;BME280;41957;52.060;5.138;2022-09-20T00:25:56;102359.13;;;18.31;64.38
56082;BME280;41957;52.060;5.138;2022-09-20T00:28:22;102365.28;;;18.33;64.47
56082;BME280;41957;52.060;5.138;2022-09-20T00:30:47;102367.06;;;18.33;64.70
56082;BME280;41957;52.060;5.138;2022-09-20T00:33:13;102363.53;;;18.32;64.59
56082;BME280;41957;52.060;5.138;2022-09-20T00:35:42;102361.75;;;18.33;64.38
56082;BME280;41957;52.060;5.138;2022-09-20T00:38:08;102364.38;;;18.34;63.89
56082;BME280;41957;52.060;5.138;2022-09-20T00:40:33;102372.41;;;18.33;64.31
56082;BME280;41957;52.060;5.138;2022-09-20T00:42:58;102367.06;;;18.33;64.05
56082;BME280;41957;52.060;5.138;2022-09-20T00:45:28;102368.00;;;18.32;64.34
56082;BME280;41957;52.060;5.138;2022-09-20T00:47:54;102365.34;;;18.32;63.84
56082;BME280;41957;52.060;5.138;2022-09-20T00:50:24;102370.66;;;18.32;64.02
56082;BME280;41957;52.060;5.138;2022-09-20T00:52:55;102368.03;;;18.30;64.26
56082;BME280;41957;52.060;5.138;2022-09-20T00:55:22;102372.44;;;18.31;63.77
56082;BME280;41957;52.060;5.138;2022-09-20T00:57:48;102370.72;;;18.29;63.79
56082;BME280;41957;52.060;5.138;2022-09-20T01:00:14;102377.81;;;18.30;63.94
56082;BME280;41957;52.060;5.138;2022-09-20T01:02:43;102369.91;;;18.27;64.00
56082;BME280;41957;52.060;5.138;2022-09-20T01:05:11;102373.34;;;18.30;63.72
56082;BME280;41957;52.060;5.138;2022-09-20T01:07:38;102365.38;;;18.30;63.89
56082;BME280;41957;52.060;5.138;2022-09-20T01:10:05;102351.38;;;18.22;63.92
56082;BME280;41957;52.060;5.138;2022-09-20T01:12:32;102358.31;;;18.28;63.79
56082;BME280;41957;52.060;5.138;2022-09-20T01:15:01;102358.31;;;18.28;63.88
56082;BME280;41957;52.060;5.138;2022-09-20T01:17:28;102354.81;;;18.26;63.68
56082;BME280;41957;52.060;5.138;2022-09-20T01:23:11;102358.31;;;18.28;63.74
56082;BME280;41957;52.060;5.138;2022-09-20T01:28:17;102362.81;;;18.26;63.82
56082;BME280;41957;52.060;5.138;2022-09-20T01:30:47;102368.19;;;18.24;64.15
56082;BME280;41957;52.060;5.138;2022-09-20T01:35:52;102365.53;;;18.24;63.58
56082;BME280;41957;52.060;5.138;2022-09-20T01:38:41;102364.66;;;18.22;64.20
56082;BME280;41957;52.060;5.138;2022-09-20T01:41:16;102362.00;;;18.24;64.13
56082;BME280;41957;52.060;5.138;2022-09-20T01:43:52;102364.59;;;18.25;63.59
56082;BME280;41957;52.060;5.138;2022-09-20T01:46:28;102365.53;;;18.24;63.59
56082;BME280;41957;52.060;5.138;2022-09-20T01:51:55;102362.81;;;18.26;63.45
56082;BME280;41957;52.060;5.138;2022-09-20T01:55:09;102356.66;;;18.24;63.53
56082;BME280;41957;52.060;5.138;2022-09-20T01:58:02;102355.78;;;18.23;63.78
56082;BME280;41957;52.060;5.138;2022-09-20T02:04:05;102345.16;;;18.22;63.37
56082;BME280;41957;52.060;5.138;2022-09-20T02:25:53;102357.69;;;18.18;63.41
56082;BME280;41957;52.060;5.138;2022-09-20T02:28:50;102348.78;;;18.19;63.56
56082;BME280;41957;52.060;5.138;2022-09-20T02:34:29;102348.78;;;18.19;63.67
56082;BME280;41957;52.060;5.138;2022-09-20T02:37:28;102347.06;;;18.17;63.45
56082;BME280;41957;52.060;5.138;2022-09-20T02:40:32;102351.50;;;18.18;63.35
56082;BME280;41957;52.060;5.138;2022-09-20T02:43:09;102355.06;;;18.17;63.45
56082;BME280;41957;52.060;5.138;2022-09-20T02:49:01;102352.44;;;18.15;63.39
56082;BME280;41957;52.060;5.138;2022-09-20T02:51:39;102357.78;;;18.14;63.71
56082;BME280;41957;52.060;5.138;2022-09-20T02:54:23;102355.09;;;18.15;63.70
56082;BME280;41957;52.060;5.138;2022-09-20T02:57:05;102352.53;;;18.12;63.64
56082;BME280;41957;52.060;5.138;2022-09-20T03:02:34;102363.97;;;18.16;63.45
56082;BME280;41957;52.060;5.138;2022-09-20T03:07:36;102356.91;;;18.15;63.57
56082;BME280;41957;52.060;5.138;2022-09-20T03:10:20;102358.72;;;18.13;63.75
56082;BME280;41957;52.060;5.138;2022-09-20T03:15:50;102358.72;;;18.13;63.47
56082;BME280;41957;52.060;5.138;2022-09-20T03:18:47;102351.66;;;18.11;63.54
56082;BME280;41957;52.060;5.138;2022-09-20T03:26:36;102352.53;;;18.12;63.01
56082;BME280;41957;52.060;5.138;2022-09-20T03:40:16;102358.78;;;18.09;63.50
56082;BME280;41957;52.060;5.138;2022-09-20T03:42:47;102357.88;;;18.10;63.10
56082;BME280;41957;52.060;5.138;2022-09-20T03:48:16;102359.72;;;18.08;63.23
56082;BME280;41957;52.060;5.138;2022-09-20T03:51:26;102354.38;;;18.08;63.40
56082;BME280;41957;52.060;5.138;2022-09-20T03:54:29;102351.75;;;18.07;63.13
56082;BME280;41957;52.060;5.138;2022-09-20T03:57:06;102353.53;;;18.06;63.15
56082;BME280;41957;52.060;5.138;2022-09-20T04:00:07;102358.00;;;18.06;63.12
56082;BME280;41957;52.060;5.138;2022-09-20T04:08:26;102351.81;;;18.05;63.32
56082;BME280;41957;52.060;5.138;2022-09-20T04:11:02;102349.09;;;18.07;63.09
56082;BME280;41957;52.060;5.138;2022-09-20T04:13:37;102353.63;;;18.03;63.08
56082;BME280;41957;52.060;5.138;2022-09-20T04:21:55;102352.69;;;18.04;63.12
56082;BME280;41957;52.060;5.138;2022-09-20T04:27:00;102358.00;;;18.04;63.05
56082;BME280;41957;52.060;5.138;2022-09-20T04:29:43;102359.81;;;18.04;63.15
56082;BME280;41957;52.060;5.138;2022-09-20T04:32:24;102352.75;;;18.03;63.04
56082;BME280;41957;52.060;5.138;2022-09-20T04:35:10;102359.81;;;18.04;63.41
56082;BME280;41957;52.060;5.138;2022-09-20T04:37:58;102361.66;;;18.02;63.23
56082;BME280;41957;52.060;5.138;2022-09-20T04:40:53;102360.75;;;18.01;63.30
56082;BME280;41957;52.060;5.138;2022-09-20T05:01:23;102375.81;;;18.02;63.02
56082;BME280;41957;52.060;5.138;2022-09-20T05:09:21;102376.78;;;17.98;63.17
56082;BME280;41957;52.060;5.138;2022-09-20T05:11:56;102375.84;;;18.01;63.04
56082;BME280;41957;52.060;5.138;2022-09-20T05:14:49;102375.91;;;17.99;62.99
56082;BME280;41957;52.060;5.138;2022-09-20T05:20:12;102390.06;;;18.00;63.30
56082;BME280;41957;52.060;5.138;2022-09-20T05:23:06;102392.72;;;18.00;62.90
56082;BME280;41957;52.060;5.138;2022-09-20T05:30:57;102405.16;;;17.99;63.04
56082;BME280;41957;52.060;5.138;2022-09-20T05:38:48;102400.78;;;17.97;63.14
56082;BME280;41957;52.060;5.138;2022-09-20T05:41:41;102405.16;;;17.99;63.46
56082;BME280;41957;52.060;5.138;2022-09-20T05:44:24;102410.56;;;17.96;63.48
56082;BME280;41957;52.060;5.138;2022-09-20T06:00:38;102407.47;;;18.15;63.89
56082;BME280;41957;52.060;5.138;2022-09-20T06:03:18;102405.59;;;18.18;63.68
56082;BME280;41957;52.060;5.138;2022-09-20T06:19:41;102414.22;;;18.28;63.52
56082;BME280;41957;52.060;5.138;2022-09-20T06:22:23;102412.44;;;18.28;63.33
56082;BME280;41957;52.060;5.138;2022-09-20T06:27:48;102411.47;;;18.32;63.45
56082;BME280;41957;52.060;5.138;2022-09-20T06:30:36;102420.19;;;18.39;63.31
56082;BME280;41957;52.060;5.138;2022-09-20T06:35:49;102422.69;;;18.45;63.19
56082;BME280;41957;52.060;5.138;2022-09-20T06:41:39;102425.13;;;18.54;62.87
56082;BME280;41957;52.060;5.138;2022-09-20T06:44:05;102428.63;;;18.56;62.70
56082;BME280;41957;52.060;5.138;2022-09-20T06:46:33;102434.75;;;18.58;62.44
56082;BME280;41957;52.060;5.138;2022-09-20T06:49:00;102430.28;;;18.61;62.78
56082;BME280;41957;52.060;5.138;2022-09-20T06:51:27;102430.13;;;18.67;62.54
56082;BME280;41957;52.060;5.138;2022-09-20T06:53:54;102424.72;;;18.70;62.39
56082;BME280;41957;52.060;5.138;2022-09-20T06:56:24;102430.84;;;18.75;62.19
56082;BME280;41957;52.060;5.138;2022-09-20T06:58:51;102434.38;;;18.75;62.56
56082;BME280;41957;52.060;5.138;2022-09-20T07:01:17;102428.38;;;18.66;62.94
56082;BME280;41957;52.060;5.138;2022-09-20T07:03:43;102421.53;;;18.55;63.01
56082;BME280;41957;52.060;5.138;2022-09-20T07:06:09;102423.38;;;18.53;63.14
56082;BME280;41957;52.060;5.138;2022-09-20T07:08:35;102429.66;;;18.51;62.80
56082;BME280;41957;52.060;5.138;2022-09-20T07:11:05;102427.84;;;18.51;63.22
56082;BME280;41957;52.060;5.138;2022-09-20T07:13:30;102424.97;;;18.61;62.78
56082;BME280;41957;52.060;5.138;2022-09-20T07:16:03;102423.16;;;18.61;62.24
56082;BME280;41957;52.060;5.138;2022-09-20T07:18:30;102425.06;;;18.56;62.39
56082;BME280;41957;52.060;5.138;2022-09-20T07:20:56;102428.78;;;18.50;62.97
56082;BME280;41957;52.060;5.138;2022-09-20T07:23:24;102435.06;;;18.48;62.78
56082;BME280;41957;52.060;5.138;2022-09-20T07:25:49;102437.75;;;18.46;62.57
56082;BME280;41957;52.060;5.138;2022-09-20T07:28:15;102436.91;;;18.44;62.56
56082;BME280;41957;52.060;5.138;2022-09-20T07:30:41;102428.94;;;18.44;62.86
56082;BME280;41957;52.060;5.138;2022-09-20T07:33:07;102428.94;;;18.44;62.25
56082;BME280;41957;52.060;5.138;2022-09-20T07:35:34;102429.81;;;18.43;62.36
56082;BME280;41957;52.060;5.138;2022-09-20T07:38:00;102429.81;;;18.43;62.13
56082;BME280;41957;52.060;5.138;2022-09-20T07:40:26;102435.19;;;18.42;62.41
56082;BME280;41957;52.060;5.138;2022-09-20T07:42:51;102444.00;;;18.44;62.31
56082;BME280;41957;52.060;5.138;2022-09-20T07:45:16;102447.50;;;18.47;62.37
56082;BME280;41957;52.060;5.138;2022-09-20T07:47:45;102455.47;;;18.47;61.80
56082;BME280;41957;52.060;5.138;2022-09-20T07:50:11;102464.34;;;18.48;62.05
56082;BME280;41957;52.060;5.138;2022-09-20T07:52:36;102465.22;;;18.48;62.13
56082;BME280;41957;52.060;5.138;2022-09-20T07:55:01;102475.88;;;18.48;61.72
56082;BME280;41957;52.060;5.138;2022-09-20T07:57:27;102481.13;;;18.51;62.02
56082;BME280;41957;52.060;5.138;2022-09-20T07:59:52;102480.28;;;18.49;61.96
56082;BME280;41957;52.060;5.138;2022-09-20T08:02:17;102485.59;;;18.49;62.17
56082;BME280;41957;52.060;5.138;2022-09-20T08:04:43;102479.38;;;18.50;62.17
56082;BME280;41957;52.060;5.138;2022-09-20T08:07:08;102487.31;;;18.52;62.27
56082;BME280;41957;52.060;5.138;2022-09-20T08:09:34;102499.75;;;18.51;61.94
56082;BME280;41957;52.060;5.138;2022-09-20T08:11:59;102499.72;;;18.53;62.35
56082;BME280;41957;52.060;5.138;2022-09-20T08:14:25;102503.28;;;18.52;61.94
56082;BME280;41957;52.060;5.138;2022-09-20T08:16:51;102503.28;;;18.52;62.38
56082;BME280;41957;52.060;5.138;2022-09-20T08:19:21;102499.84;;;18.48;62.06
56082;BME280;41957;52.060;5.138;2022-09-20T08:21:49;102511.25;;;18.53;62.11
56082;BME280;41957;52.060;5.138;2022-09-20T08:24:15;102508.59;;;18.53;62.06
56082;BME280;41957;52.060;5.138;2022-09-20T08:26:40;102512.94;;;18.56;62.04
56082;BME280;41957;52.060;5.138;2022-09-20T08:29:06;102512.00;;;18.58;61.78
56082;BME280;41957;52.060;5.138;2022-09-20T08:31:32;102517.31;;;18.60;62.33
56082;BME280;41957;52.060;5.138;2022-09-20T08:33:59;102517.34;;;18.58;62.30
56082;BME280;41957;52.060;5.138;2022-09-20T08:36:30;102520.91;;;18.57;62.41
56082;BME280;41957;52.060;5.138;2022-09-20T08:38:56;102521.78;;;18.58;62.17
56082;BME280;41957;52.060;5.138;2022-09-20T08:41:41;102521.75;;;18.60;62.38
56082;BME280;41957;52.060;5.138;2022-09-20T08:44:31;102520.84;;;18.61;61.90
56082;BME280;41957;52.060;5.138;2022-09-20T08:47:23;102527.91;;;18.62;62.18
56082;BME280;41957;52.060;5.138;2022-09-20T08:49:50;102520.84;;;18.61;62.49
56082;BME280;41957;52.060;5.138;2022-09-20T08:52:24;102516.38;;;18.61;62.33
56082;BME280;41957;52.060;5.138;2022-09-20T08:54:53;102519.97;;;18.60;62.39
56082;BME280;41957;52.060;5.138;2022-09-20T08:57:21;102527.97;;;18.58;62.07
56082;BME280;41957;52.060;5.138;2022-09-20T08:59:47;102527.03;;;18.61;62.07
56082;BME280;41957;52.060;5.138;2022-09-20T09:02:18;102519.09;;;18.60;62.32
56082;BME280;41957;52.060;5.138;2022-09-20T09:04:44;102514.66;;;18.60;62.19
56082;BME280;41957;52.060;5.138;2022-09-20T09:07:15;102513.69;;;18.63;62.31
56082;BME280;41957;52.060;5.138;2022-09-20T09:09:43;102511.91;;;18.63;62.44
56082;BME280;41957;52.060;5.138;2022-09-20T09:12:25;102521.56;;;18.67;62.33
56082;BME280;41957;52.060;5.138;2022-09-20T09:14:52;102513.56;;;18.69;62.18
56082;BME280;41957;52.060;5.138;2022-09-20T09:17:24;102525.16;;;18.66;62.08
56082;BME280;41957;52.060;5.138;2022-09-20T09:22:21;102520.69;;;18.67;62.29
56082;BME280;41957;52.060;5.138;2022-09-20T09:25:21;102527.69;;;18.71;62.01
56082;BME280;41957;52.060;5.138;2022-09-20T09:28:03;102533.81;;;18.76;62.11
56082;BME280;41957;52.060;5.138;2022-09-20T09:30:41;102539.16;;;18.74;62.14
56082;BME280;41957;52.060;5.138;2022-09-20T09:33:21;102529.47;;;18.72;62.66
56082;BME280;41957;52.060;5.138;2022-09-20T09:35:57;102533.91;;;18.73;62.62
56082;BME280;41957;52.060;5.138;2022-09-20T09:38:26;102535.69;;;18.71;62.45
56082;BME280;41957;52.060;5.138;2022-09-20T09:41:02;102533.00;;;18.72;62.64
56082;BME280;41957;52.060;5.138;2022-09-20T09:43:31;102533.91;;;18.73;62.47
56082;BME280;41957;52.060;5.138;2022-09-20T09:46:18;102542.81;;;18.70;62.84
56082;BME280;41957;52.060;5.138;2022-09-20T09:48:46;102539.28;;;18.70;62.75
56082;BME280;41957;52.060;5.138;2022-09-20T09:51:19;102549.00;;;18.71;62.56
56082;BME280;41957;52.060;5.138;2022-09-20T09:53:46;102551.66;;;18.72;62.54
56082;BME280;41957;52.060;5.138;2022-09-20T09:56:42;102553.41;;;18.75;62.47
56082;BME280;41957;52.060;5.138;2022-09-20T09:59:24;102557.72;;;18.79;62.27
56082;BME280;41957;52.060;5.138;2022-09-20T10:02:20;102556.00;;;18.76;62.43
56082;BME280;41957;52.060;5.138;2022-09-20T10:07:34;102555.84;;;18.84;62.34
56082;BME280;41957;52.060;5.138;2022-09-20T10:10:12;102550.53;;;18.83;62.25
56082;BME280;41957;52.060;5.138;2022-09-20T10:13:17;102549.66;;;18.82;62.20
56082;BME280;41957;52.060;5.138;2022-09-20T10:24:28;102537.28;;;18.79;62.56
56082;BME280;41957;52.060;5.138;2022-09-20T10:27:23;102534.59;;;18.81;62.23
56082;BME280;41957;52.060;5.138;2022-09-20T10:32:41;102538.06;;;18.83;62.24
56082;BME280;41957;52.060;5.138;2022-09-20T10:49:52;102530.94;;;18.85;61.98
56082;BME280;41957;52.060;5.138;2022-09-20T10:58:23;102536.19;;;18.87;61.75
56082;BME280;41957;52.060;5.138;2022-09-20T11:00:49;102529.06;;;18.89;61.92
56082;BME280;41957;52.060;5.138;2022-09-20T11:08:58;102528.22;;;18.87;61.97
56082;BME280;41957;52.060;5.138;2022-09-20T11:11:33;102537.06;;;18.89;61.91
56082;BME280;41957;52.060;5.138;2022-09-20T11:14:05;102532.59;;;18.89;61.73
56082;BME280;41957;52.060;5.138;2022-09-20T11:16:56;102529.06;;;18.89;61.97
56082;BME280;41957;52.060;5.138;2022-09-20T11:19:37;102532.50;;;18.92;62.12
56082;BME280;41957;52.060;5.138;2022-09-20T11:22:12;102546.78;;;18.90;61.50
56082;BME280;41957;52.060;5.138;2022-09-20T11:24:47;102537.91;;;18.89;61.67
56082;BME280;41957;52.060;5.138;2022-09-20T11:27:25;102546.69;;;18.94;61.80
56082;BME280;41957;52.060;5.138;2022-09-20T11:30:05;102544.03;;;18.93;61.67
56082;BME280;41957;52.060;5.138;2022-09-20T11:35:49;102545.84;;;18.92;61.93
56082;BME280;41957;52.060;5.138;2022-09-20T11:38:36;102552.09;;;18.91;62.33
56082;BME280;41957;52.060;5.138;2022-09-20T11:41:04;102536.81;;;18.98;62.78
56082;BME280;41957;52.060;5.138;2022-09-20T11:43:33;102535.00;;;19.00;63.92
56082;BME280;41957;52.060;5.138;2022-09-20T11:46:04;102536.03;;;18.94;63.89
56082;BME280;41957;52.060;5.138;2022-09-20T11:48:37;102533.44;;;18.91;63.73
56082;BME280;41957;52.060;5.138;2022-09-20T11:51:07;102537.84;;;18.92;64.07
56082;BME280;41957;52.060;5.138;2022-09-20T11:53:51;102529.94;;;18.89;64.25
56082;BME280;41957;52.060;5.138;2022-09-20T11:56:21;102536.06;;;18.93;64.15
56082;BME280;41957;52.060;5.138;2022-09-20T11:58:53;102536.09;;;18.91;63.92
56082;BME280;41957;52.060;5.138;2022-09-20T12:01:26;102538.78;;;18.91;63.88
56082;BME280;41957;52.060;5.138;2022-09-20T12:03:55;102536.03;;;18.94;64.07
56082;BME280;41957;52.060;5.138;2022-09-20T12:06:28;102542.31;;;18.92;63.85
56082;BME280;41957;52.060;5.138;2022-09-20T12:08:59;102530.78;;;18.91;64.09
56082;BME280;41957;52.060;5.138;2022-09-20T12:11:29;102533.44;;;18.91;64.04
56082;BME280;41957;52.060;5.138;2022-09-20T12:14:05;102535.22;;;18.91;63.96
56082;BME280;41957;52.060;5.138;2022-09-20T12:16:42;102530.78;;;18.91;64.19
56082;BME280;41957;52.060;5.138;2022-09-20T12:19:58;102530.78;;;18.91;64.02
56082;BME280;41957;52.060;5.138;2022-09-20T12:24:26;102541.44;;;18.91;63.96
56082;BME280;41957;52.060;5.138;2022-09-20T12:32:40;102533.44;;;18.91;63.92
56082;BME280;41957;52.060;5.138;2022-09-20T12:38:25;102530.78;;;18.91;63.77
56082;BME280;41957;52.060;5.138;2022-09-20T12:41:08;102516.59;;;18.89;63.80
56082;BME280;41957;52.060;5.138;2022-09-20T12:43:45;102523.72;;;18.90;63.55
56082;BME280;41957;52.060;5.138;2022-09-20T12:48:49;102524.56;;;18.91;63.82
56082;BME280;41957;52.060;5.138;2022-09-20T12:51:20;102526.25;;;18.95;63.62
56082;BME280;41957;52.060;5.138;2022-09-20T12:54:09;102526.13;;;18.99;63.44
56082;BME280;41957;52.060;5.138;2022-09-20T12:56:37;102522.53;;;19.02;63.28
56082;BME280;41957;52.060;5.138;2022-09-20T12:59:05;102528.63;;;19.06;63.28
56082;BME280;41957;52.060;5.138;2022-09-20T13:01:43;102524.19;;;19.06;63.48
56082;BME280;41957;52.060;5.138;2022-09-20T13:07:32;102525.03;;;19.08;63.46
56082;BME280;41957;52.060;5.138;2022-09-20T13:10:13;102529.34;;;19.12;63.25
56082;BME280;41957;52.060;5.138;2022-09-20T13:12:41;102517.03;;;19.08;63.32
56082;BME280;41957;52.060;5.138;2022-09-20T13:15:15;102524.97;;;19.10;63.29
56082;BME280;41957;52.060;5.138;2022-09-20T13:17:42;102527.56;;;19.13;62.98
56082;BME280;41957;52.060;5.138;2022-09-20T13:20:15;102523.72;;;18.90;61.29
56082;BME280;41957;52.060;5.138;2022-09-20T13:22:43;102529.06;;;18.51;56.60
56082;BME280;41957;52.060;5.138;2022-09-20T13:25:13;102530.13;;;18.43;57.10
56082;BME280;41957;52.060;5.138;2022-09-20T13:27:47;102530.94;;;18.46;56.05
56082;BME280;41957;52.060;5.138;2022-09-20T13:30:22;102535.59;;;18.38;54.81
56082;BME280;41957;52.060;5.138;2022-09-20T13:32:48;102526.81;;;18.33;54.22
56082;BME280;41957;52.060;5.138;2022-09-20T13:35:22;102531.28;;;18.32;53.41
56082;BME280;41957;52.060;5.138;2022-09-20T13:37:58;102534.16;;;18.23;53.11
56082;BME280;41957;52.060;5.138;2022-09-20T13:42:59;102527.09;;;18.21;52.67
56082;BME280;41957;52.060;5.138;2022-09-20T13:45:26;102534.22;;;18.20;52.80
56082;BME280;41957;52.060;5.138;2022-09-20T13:47:53;102534.16;;;18.22;53.06
56082;BME280;41957;52.060;5.138;2022-09-20T13:50:28;102535.25;;;18.52;55.80
56082;BME280;41957;52.060;5.138;2022-09-20T13:53:00;102535.81;;;18.66;55.94
56082;BME280;41957;52.060;5.138;2022-09-20T13:55:27;102536.59;;;18.70;56.11
56082;BME280;41957;52.060;5.138;2022-09-20T13:57:54;102537.44;;;18.73;56.13
56082;BME280;41957;52.060;5.138;2022-09-20T14:00:21;102534.66;;;18.78;55.49
56082;BME280;41957;52.060;5.138;2022-09-20T14:02:47;102536.34;;;18.80;56.02
56082;BME280;41957;52.060;5.138;2022-09-20T14:05:18;102532.00;;;18.78;56.75
56082;BME280;41957;52.060;5.138;2022-09-20T14:07:45;102536.47;;;18.76;57.08
56082;BME280;41957;52.060;5.138;2022-09-20T14:10:36;102531.09;;;18.79;56.93
56082;BME280;41957;52.060;5.138;2022-09-20T14:13:06;102523.72;;;18.89;57.05
56082;BME280;41957;52.060;5.138;2022-09-20T14:15:40;102528.06;;;18.93;57.31
56082;BME280;41957;52.060;5.138;2022-09-20T14:18:12;102526.28;;;18.93;57.44
56082;BME280;41957;52.060;5.138;2022-09-20T14:20:40;102522.66;;;18.96;57.49
56082;BME280;41957;52.060;5.138;2022-09-20T14:23:19;102519.97;;;18.96;57.61
56082;BME280;41957;52.060;5.138;2022-09-20T14:28:32;102513.59;;;19.03;57.67
56082;BME280;41957;52.060;5.138;2022-09-20T14:31:05;102513.53;;;19.06;57.67
56082;BME280;41957;52.060;5.138;2022-09-20T14:33:32;102510.78;;;19.08;57.97
56082;BME280;41957;52.060;5.138;2022-09-20T14:35:58;102517.81;;;19.12;57.87
56082;BME280;41957;52.060;5.138;2022-09-20T14:38:25;102516.88;;;19.14;58.14
56082;BME280;41957;52.060;5.138;2022-09-20T14:40:51;102519.56;;;19.13;58.41
56082;BME280;41957;52.060;5.138;2022-09-20T14:43:31;102507.09;;;19.13;58.15
56082;BME280;41957;52.060;5.138;2022-09-20T14:46:00;102511.56;;;19.13;58.50
56082;BME280;41957;52.060;5.138;2022-09-20T14:48:38;102504.50;;;19.12;58.21
56082;BME280;41957;52.060;5.138;2022-09-20T14:53:44;102509.75;;;19.13;58.45
56082;BME280;41957;52.060;5.138;2022-09-20T14:56:11;102509.75;;;19.13;58.75
56082;BME280;41957;52.060;5.138;2022-09-20T14:59:00;102512.41;;;19.15;58.75
56082;BME280;41957;52.060;5.138;2022-09-20T15:01:27;102512.44;;;19.13;58.63
56082;BME280;41957;52.060;5.138;2022-09-20T15:03:53;102513.34;;;19.12;58.83
56082;BME280;41957;52.060;5.138;2022-09-20T15:06:18;102517.81;;;19.12;58.90
56082;BME280;41957;52.060;5.138;2022-09-20T15:08:44;102512.56;;;19.09;59.11
56082;BME280;41957;52.060;5.138;2022-09-20T15:11:15;102517.81;;;19.12;59.08
56082;BME280;41957;52.060;5.138;2022-09-20T15:13:41;102521.38;;;19.11;59.12
56082;BME280;41957;52.060;5.138;2022-09-20T15:16:06;102519.63;;;19.10;59.23
56082;BME280;41957;52.060;5.138;2022-09-20T15:18:40;102524.97;;;19.10;59.01
56082;BME280;41957;52.060;5.138;2022-09-20T15:21:06;102516.09;;;19.09;58.94
56082;BME280;41957;52.060;5.138;2022-09-20T15:23:34;102517.91;;;19.09;59.19
56082;BME280;41957;52.060;5.138;2022-09-20T15:25:59;102516.13;;;19.08;59.34
56082;BME280;41957;52.060;5.138;2022-09-20T15:28:25;102520.50;;;19.10;59.41
56082;BME280;41957;52.060;5.138;2022-09-20T15:30:52;102520.47;;;19.12;59.58
56082;BME280;41957;52.060;5.138;2022-09-20T15:33:19;102523.31;;;19.06;59.24
56082;BME280;41957;52.060;5.138;2022-09-20T15:35:45;102525.19;;;19.02;59.65
56082;BME280;41957;52.060;5.138;2022-09-20T15:38:11;102526.88;;;19.05;59.55
56082;BME280;41957;52.060;5.138;2022-09-20T15:40:41;102521.63;;;19.01;59.87
56082;BME280;41957;52.060;5.138;2022-09-20T15:43:08;102519.88;;;19.00;59.61
56082;BME280;41957;52.060;5.138;2022-09-20T15:45:46;102521.69;;;18.98;60.02
56082;BME280;41957;52.060;5.138;2022-09-20T15:48:14;102519.00;;;19.00;59.98
56082;BME280;41957;52.060;5.138;2022-09-20T15:50:40;102520.75;;;19.01;60.13
56082;BME280;41957;52.060;5.138;2022-09-20T15:53:07;102525.22;;;19.00;59.92
56082;BME280;41957;52.060;5.138;2022-09-20T15:55:35;102523.47;;;18.99;59.68
56082;BME280;41957;52.060;5.138;2022-09-20T15:58:01;102517.28;;;18.99;60.08
56082;BME280;41957;52.060;5.138;2022-09-20T16:00:26;102515.47;;;18.99;59.84
56082;BME280;41957;52.060;5.138;2022-09-20T16:02:51;102512.84;;;18.98;59.89
56082;BME280;41957;52.060;5.138;2022-09-20T16:05:17;102509.28;;;18.97;59.78
56082;BME280;41957;52.060;5.138;2022-09-20T16:07:42;102512.81;;;18.99;59.82
56082;BME280;41957;52.060;5.138;2022-09-20T16:10:07;102516.34;;;19.00;60.00
56082;BME280;41957;52.060;5.138;2022-09-20T16:12:33;102521.53;;;19.05;60.20
56082;BME280;41957;52.060;5.138;2022-09-20T16:14:58;102526.94;;;19.01;60.17
56082;BME280;41957;52.060;5.138;2022-09-20T16:17:23;102519.88;;;19.00;60.03
56082;BME280;41957;52.060;5.138;2022-09-20T16:20:09;102521.53;;;19.05;60.19
56082;BME280;41957;52.060;5.138;2022-09-20T16:22:34;102516.28;;;19.01;60.28
56082;BME280;41957;52.060;5.138;2022-09-20T16:24:59;102523.47;;;18.99;60.49
56082;BME280;41957;52.060;5.138;2022-09-20T16:27:30;102527.03;;;18.98;60.47
56082;BME280;41957;52.060;5.138;2022-09-20T16:29:58;102531.47;;;18.99;60.42
56082;BME280;41957;52.060;5.138;2022-09-20T16:32:23;102524.34;;;19.00;60.33
56082;BME280;41957;52.060;5.138;2022-09-20T16:34:49;102527.03;;;18.98;60.46
56082;BME280;41957;52.060;5.138;2022-09-20T16:37:19;102529.69;;;18.98;60.50
56082;BME280;41957;52.060;5.138;2022-09-20T16:39:44;102533.25;;;18.99;60.52
56082;BME280;41957;52.060;5.138;2022-09-20T16:42:10;102540.34;;;18.98;60.53
56082;BME280;41957;52.060;5.138;2022-09-20T16:44:38;102537.06;;;19.23;66.41
56082;BME280;41957;52.060;5.138;2022-09-20T16:47:06;102545.63;;;19.36;69.58
56082;BME280;41957;52.060;5.138;2022-09-20T16:49:33;102549.00;;;19.42;69.45
56082;BME280;41957;52.060;5.138;2022-09-20T16:52:02;102544.63;;;19.40;71.58
56082;BME280;41957;52.060;5.138;2022-09-20T16:54:28;102552.72;;;19.35;71.95
56082;BME280;41957;52.060;5.138;2022-09-20T16:56:54;102557.34;;;19.29;71.31
56082;BME280;41957;52.060;5.138;2022-09-20T16:59:19;102547.72;;;19.23;70.19
56082;BME280;41957;52.060;5.138;2022-09-20T17:01:48;102554.06;;;19.19;70.28
56082;BME280;41957;52.060;5.138;2022-09-20T17:04:15;102562.06;;;19.19;69.88